Time;durP1;ratioP1;P1;durP2;ratioP2;P2;SDS_P1;SDS_P2;PMS_P1;PMS_P2;Temp;Humidity;BMP_temperature;BMP_pressure;BME280_temperature;BME280_humidity;BME280_pressure;Samples;Min_cycle;Max_cycle;Signal;HPM_P1;HPM_P2
2023/11/04 00:01:47;;;;;;;2.28;2.03;;;18.50;62.50;;;;;;5926204;24;20161;-88
2023/11/04 00:04:51;;;;;;;2.05;1.85;;;18.50;62.50;;;;;;5925597;24;20186;-88
2023/11/04 00:07:37;;;;;;;2.10;1.90;;;18.50;62.50;;;;;;5919203;24;20256;-88
2023/11/04 00:10:17;;;;;;;2.10;1.90;;;18.50;62.30;;;;;;5899211;24;20161;-89
2023/11/04 00:12:46;;;;;;;2.35;2.05;;;18.50;62.20;;;;;;5894208;24;20196;-88
2023/11/04 00:16:39;;;;;;;2.28;2.08;;;18.50;62.30;;;;;;5895741;24;20503;-91
2023/11/04 00:21:52;;;;;;;2.20;2.00;;;18.40;62.40;;;;;;5904744;24;20244;-86
2023/11/04 00:24:22;;;;;;;2.78;2.15;;;18.40;62.40;;;;;;5849189;24;20156;-89
2023/11/04 00:26:59;;;;;;;2.10;1.90;;;18.50;62.50;;;;;;5848744;24;20238;-87
2023/11/04 00:29:29;;;;;;;2.15;1.90;;;18.40;62.60;;;;;;5894680;24;20232;-87
2023/11/04 00:31:59;;;;;;;2.30;2.10;;;18.40;62.50;;;;;;5885406;24;20702;-88
2023/11/04 00:34:33;;;;;;;1.92;1.83;;;18.40;62.50;;;;;;5873014;24;20166;-88
2023/11/04 00:40:12;;;;;;;2.25;1.98;;;18.40;62.60;;;;;;5808797;24;20160;-88
2023/11/04 06:48:11;;;;;;;1.80;1.70;;;18.10;64.00;;;;;;6264541;22;20207;-87
2023/11/04 06:50:37;;;;;;;2.42;1.90;;;18.10;63.80;;;;;;6161109;23;20147;-89
2023/11/04 06:54:13;;;;;;;;;;;;;;;;;;;;;
2023/11/04 06:57:38;;;;;;;2.17;1.98;;;18.10;63.90;;;;;;6101330;23;20195;-90
2023/11/04 07:00:11;;;;;;;1.80;1.70;;;18.10;64.10;;;;;;5958061;24;20171;-88
2023/11/04 07:02:59;;;;;;;2.10;1.90;;;18.10;64.00;;;;;;5912378;24;20167;-89
2023/11/04 07:05:46;;;;;;;;;;;;;;;;;;;;;
2023/11/04 07:09:04;;;;;;;1.98;1.83;;;18.10;64.00;;;;;;5879972;24;20192;-87
2023/11/04 07:11:51;;;;;;;1.92;1.75;;;18.00;64.10;;;;;;5797209;24;20196;-89
2023/11/04 07:17:56;;;;;;;2.00;1.80;;;18.10;64.20;;;;;;5746795;25;20179;-87
2023/11/04 07:20:37;;;;;;;1.90;1.80;;;18.10;64.20;;;;;;5698549;25;20264;-89
2023/11/04 07:23:18;;;;;;;2.00;1.75;;;18.10;64.10;;;;;;5720483;25;20170;-89
2023/11/04 07:29:17;;;;;;;2.42;1.98;;;18.10;64.10;;;;;;5746587;25;20166;-89
2023/11/04 07:32:04;;;;;;;1.92;1.80;;;18.10;64.00;;;;;;5846906;24;20194;-89
2023/11/04 07:34:52;;;;;;;1.85;1.60;;;18.10;64.30;;;;;;5824521;24;20160;-87
2023/11/04 07:37:58;;;;;;;;;;;;;;;;;;;;;
2023/11/04 07:40:42;;;;;;;2.70;1.90;;;18.00;64.50;;;;;;5841318;24;20191;-89
2023/11/04 07:43:19;;;;;;;1.88;1.70;;;18.00;64.60;;;;;;5755829;24;20169;-89
2023/11/04 07:45:50;;;;;;;1.70;1.60;;;18.00;64.60;;;;;;5764555;24;20419;-88
2023/11/04 07:48:37;;;;;;;1.85;1.70;;;18.10;64.40;;;;;;5785719;24;20188;-88
2023/11/04 07:51:10;;;;;;;1.83;1.73;;;18.10;64.30;;;;;;5822383;24;20171;-88
2023/11/04 07:53:46;;;;;;;1.60;1.50;;;18.10;64.30;;;;;;5812805;24;20172;-89
2023/11/04 07:56:58;;;;;;;1.65;1.55;;;18.10;64.20;;;;;;5818836;24;20187;-89
2023/11/04 07:59:38;;;;;;;1.80;1.70;;;18.10;64.00;;;;;;5865752;24;20657;-89
2023/11/04 08:02:37;;;;;;;2.28;1.90;;;18.20;64.10;;;;;;5902428;24;20236;-88
2023/11/04 08:05:14;;;;;;;1.60;1.42;;;18.20;64.20;;;;;;5838235;24;20280;-89
2023/11/04 08:07:49;;;;;;;1.63;1.52;;;18.20;63.80;;;;;;5854159;24;20158;-89
2023/11/04 08:10:35;;;;;;;1.58;1.48;;;18.20;63.40;;;;;;5856500;24;20162;-89
2023/11/04 08:13:04;;;;;;;1.80;1.70;;;18.30;63.10;;;;;;5849277;24;20191;-89
2023/11/04 08:15:44;;;;;;;1.98;1.70;;;18.40;63.00;;;;;;5849674;24;20237;-90
2023/11/04 08:31:50;;;;;;;1.55;1.38;;;18.40;63.10;;;;;;5958735;24;20267;-88
2023/11/04 08:34:17;;;;;;;1.70;1.60;;;18.50;63.00;;;;;;6038575;23;20162;-88
2023/11/04 08:36:43;;;;;;;1.55;1.45;;;18.50;63.00;;;;;;6099726;23;20623;-87
2023/11/04 08:39:18;;;;;;;1.80;1.67;;;18.50;62.90;;;;;;6121076;23;20188;-87
2023/11/04 08:41:48;;;;;;;1.80;1.40;;;18.50;62.80;;;;;;6192229;23;20538;-88
2023/11/04 08:44:17;;;;;;;1.80;1.70;;;18.60;62.70;;;;;;6196649;23;20141;-88
2023/11/04 08:46:49;;;;;;;2.42;1.60;;;18.60;62.70;;;;;;6169591;23;20150;-88
2023/11/04 08:49:15;;;;;;;2.13;1.40;;;18.60;62.60;;;;;;6142178;23;20213;-87
2023/11/04 08:51:46;;;;;;;1.45;1.35;;;18.60;62.60;;;;;;6143080;23;20194;-86
2023/11/04 08:54:42;;;;;;;1.90;1.45;;;18.70;62.30;;;;;;6143974;23;20165;-88
2023/11/04 08:57:14;;;;;;;1.48;1.27;;;18.70;62.30;;;;;;6149198;23;20152;-88
2023/11/04 09:00:17;;;;;;;1.38;1.20;;;18.80;62.30;;;;;;6054099;23;20152;-89
2023/11/04 09:03:15;;;;;;;1.42;1.33;;;18.80;62.20;;;;;;6067608;23;20164;-87
2023/11/04 09:06:04;;;;;;;1.85;1.50;;;18.80;62.20;;;;;;6069023;23;20169;-89
2023/11/04 09:53:48;;;;;;;3.20;1.67;;;18.90;62.50;;;;;;6268676;22;20191;-88
2023/11/04 10:01:17;;;;;;;1.35;1.25;;;18.90;62.60;;;;;;6079105;23;20163;-88
2023/11/04 12:42:47;;;;;;;5.10;2.90;;;19.50;63.00;;;;;;6135507;23;20245;-88
2023/11/04 12:45:39;;;;;;;4.32;3.20;;;19.40;63.10;;;;;;6069272;23;20230;-88
2023/11/04 12:48:27;;;;;;;4.72;3.25;;;19.50;63.20;;;;;;5989064;23;20150;-89
2023/11/04 12:58:35;;;;;;;5.53;3.33;;;19.40;63.20;;;;;;6056156;23;20157;-88
2023/11/04 13:01:16;;;;;;;4.40;3.30;;;19.40;63.20;;;;;;6049210;23;20150;-88
2023/11/04 13:04:20;;;;;;;6.32;3.40;;;19.40;63.20;;;;;;6049499;23;20214;-87
2023/11/04 13:06:46;;;;;;;5.15;3.38;;;19.40;63.10;;;;;;5968798;24;20159;-88
2023/11/04 13:09:42;;;;;;;4.78;3.38;;;19.40;63.00;;;;;;6004539;23;20154;-86
2023/11/04 13:12:12;;;;;;;6.03;3.60;;;19.40;63.00;;;;;;6008402;23;20690;-87
2023/11/04 13:14:47;;;;;;;6.30;3.50;;;19.40;62.90;;;;;;5992476;23;20222;-87
2023/11/04 13:17:12;;;;;;;4.28;3.45;;;19.40;63.00;;;;;;5993394;23;20155;-88
2023/11/04 13:19:39;;;;;;;3.90;3.50;;;19.40;63.00;;;;;;6053530;23;20160;-87
2023/11/04 13:22:10;;;;;;;5.18;3.63;;;19.50;63.10;;;;;;6098750;23;20145;-86
2023/11/04 13:24:37;;;;;;;4.72;3.60;;;19.40;63.10;;;;;;6026764;23;20168;-88
2023/11/04 13:27:04;;;;;;;3.80;3.33;;;19.40;63.10;;;;;;6075704;23;20164;-89
2023/11/04 13:29:33;;;;;;;4.47;3.40;;;19.40;63.00;;;;;;6097919;23;20161;-88
2023/11/04 13:32:01;;;;;;;4.40;3.47;;;19.40;63.00;;;;;;6072651;23;20232;-88
2023/11/04 13:34:26;;;;;;;6.32;3.50;;;19.40;62.90;;;;;;6096387;23;20251;-87
2023/11/04 13:36:55;;;;;;;6.05;3.55;;;19.40;62.80;;;;;;6095601;23;20215;-88
2023/11/04 13:39:21;;;;;;;4.55;3.55;;;19.40;62.90;;;;;;6047028;23;20236;-89
2023/11/04 13:41:49;;;;;;;4.88;3.78;;;19.50;62.80;;;;;;5995702;23;20169;-88
2023/11/04 13:44:15;;;;;;;4.20;3.80;;;19.50;62.90;;;;;;6018955;23;20154;-87
2023/11/04 13:46:42;;;;;;;4.78;3.67;;;19.50;62.90;;;;;;5997855;23;20169;-87
2023/11/04 13:49:12;;;;;;;3.65;3.30;;;19.50;62.80;;;;;;6034772;23;20156;-87
2023/11/04 13:51:45;;;;;;;4.10;3.50;;;19.50;62.80;;;;;;6059016;23;20207;-87
2023/11/04 13:54:26;;;;;;;5.25;3.90;;;19.40;62.80;;;;;;6084275;23;20183;-88
2023/11/04 13:57:09;;;;;;;;;;;;;;;;;;;;;
2023/11/04 13:59:51;;;;;;;4.45;3.75;;;19.50;62.90;;;;;;6022557;23;20229;-88
2023/11/04 14:02:44;;;;;;;5.53;3.67;;;19.40;62.90;;;;;;6053283;23;20191;-88
2023/11/04 14:05:12;;;;;;;4.20;3.70;;;19.40;62.70;;;;;;6114489;23;20690;-88
2023/11/04 14:07:49;;;;;;;4.78;3.75;;;19.50;62.70;;;;;;6111553;23;20159;-88
2023/11/04 14:10:26;;;;;;;4.05;3.65;;;19.50;62.90;;;;;;6116073;23;20242;-88
2023/11/04 14:12:54;;;;;;;6.25;4.10;;;19.50;62.90;;;;;;6112187;23;20249;-88
2023/11/04 14:15:46;;;;;;;6.25;3.97;;;19.40;63.00;;;;;;6115253;23;20155;-89
2023/11/04 14:18:17;;;;;;;4.50;3.78;;;19.40;62.90;;;;;;6067573;23;20162;-88
2023/11/04 14:20:45;;;;;;;4.18;3.78;;;19.50;62.70;;;;;;6068847;23;20206;-90
2023/11/04 14:23:20;;;;;;;4.28;3.85;;;19.40;62.60;;;;;;6115809;23;20154;-88
2023/11/04 14:25:54;;;;;;;5.38;4.07;;;19.50;62.60;;;;;;6136477;23;20594;-88
2023/11/04 14:28:24;;;;;;;4.03;3.63;;;19.50;62.60;;;;;;6108431;23;20167;-87
2023/11/04 14:30:52;;;;;;;5.45;4.20;;;19.50;62.60;;;;;;6035043;23;20184;-88
2023/11/04 14:33:26;;;;;;;4.53;4.00;;;19.50;62.40;;;;;;6108421;23;20215;-88
2023/11/04 14:35:52;;;;;;;6.38;4.13;;;19.50;62.30;;;;;;6076074;23;20157;-88
2023/11/04 14:38:20;;;;;;;4.65;3.75;;;19.60;62.30;;;;;;6056035;23;20154;-88
2023/11/04 14:41:02;;;;;;;3.88;3.50;;;19.50;62.20;;;;;;5997870;23;20155;-88
2023/11/04 14:44:07;;;;;;;5.30;3.95;;;19.50;62.20;;;;;;5992859;24;20211;-87
2023/11/04 14:46:58;;;;;;;4.32;3.92;;;19.50;62.20;;;;;;5949192;24;20667;-86
2023/11/04 14:49:25;;;;;;;4.75;4.07;;;19.50;62.20;;;;;;5935906;23;20491;-87
2023/11/04 14:52:18;;;;;;;4.38;3.70;;;19.50;62.30;;;;;;5971083;24;20254;-87
2023/11/04 14:55:07;;;;;;;4.95;3.85;;;19.50;62.30;;;;;;5945553;24;20174;-87
2023/11/04 14:57:38;;;;;;;5.82;4.05;;;19.50;62.40;;;;;;5899819;24;20538;-87
2023/11/04 15:00:40;;;;;;;3.97;3.47;;;19.50;62.60;;;;;;5951020;23;20606;-86
2023/11/04 15:04:05;;;;;;;4.20;3.80;;;19.50;62.40;;;;;;5943841;24;20181;-88
2023/11/04 20:10:45;;;;;;;1.65;1.55;;;19.40;58.20;;;;;;6250256;22;20247;-88
2023/11/04 20:13:16;;;;;;;1.40;1.30;;;19.40;58.20;;;;;;6171270;23;20621;-88
2023/11/04 20:15:54;;;;;;;1.55;1.45;;;19.40;58.20;;;;;;6220004;23;20149;-88
2023/11/04 20:18:24;;;;;;;1.25;1.15;;;19.40;58.10;;;;;;6197818;23;20146;-87
2023/11/04 20:20:51;;;;;;;1.42;1.33;;;19.40;58.20;;;;;;6173112;23;20149;-87
2023/11/04 20:23:34;;;;;;;1.30;1.20;;;19.40;58.80;;;;;;6171637;23;20142;-89
2023/11/04 20:26:11;;;;;;;1.30;1.20;;;19.30;58.00;;;;;;6146825;23;20547;-89
2023/11/04 20:28:39;;;;;;;1.65;1.27;;;19.40;58.10;;;;;;6171615;23;20244;-89
2023/11/04 20:31:17;;;;;;;1.20;1.10;;;19.40;58.10;;;;;;6145992;23;20154;-89
2023/11/04 20:34:02;;;;;;;1.35;1.20;;;19.40;58.10;;;;;;6165307;23;20583;-88
2023/11/04 20:36:31;;;;;;;1.40;1.30;;;19.40;58.00;;;;;;6106682;23;20573;-88
2023/11/04 20:39:04;;;;;;;1.50;1.40;;;19.40;58.00;;;;;;6057563;23;20178;-89
2023/11/04 20:41:35;;;;;;;1.50;1.40;;;19.40;58.00;;;;;;6048379;23;20193;-89
2023/11/04 20:44:18;;;;;;;1.48;1.20;;;19.40;58.00;;;;;;6047279;23;20162;-87
2023/11/04 20:46:49;;;;;;;1.15;1.05;;;19.40;57.90;;;;;;6043811;23;20240;-88
2023/11/04 20:49:15;;;;;;;2.00;1.55;;;19.30;57.80;;;;;;6072490;23;20651;-89
2023/11/04 20:51:48;;;;;;;1.92;1.35;;;19.40;58.00;;;;;;6072201;23;20154;-89
2023/11/04 20:54:21;;;;;;;1.58;1.48;;;19.40;58.00;;;;;;6047493;23;20169;-89
2023/11/04 20:57:04;;;;;;;1.13;1.02;;;19.40;58.00;;;;;;6053414;23;20163;-87
2023/11/04 20:59:32;;;;;;;1.17;1.10;;;19.30;57.80;;;;;;6072264;23;20176;-88
2023/11/04 21:02:13;;;;;;;1.40;1.30;;;19.30;57.90;;;;;;6049495;23;20175;-88
2023/11/04 21:04:46;;;;;;;1.35;1.25;;;19.30;57.90;;;;;;6051301;23;20161;-88
2023/11/04 21:07:27;;;;;;;1.55;1.25;;;19.30;57.90;;;;;;6053850;23;20307;-87
2023/11/04 21:10:23;;;;;;;1.60;1.50;;;19.30;58.00;;;;;;6055018;23;20157;-87
2023/11/04 21:13:01;;;;;;;1.30;1.20;;;19.30;58.10;;;;;;6049219;23;20193;-88
2023/11/04 21:15:41;;;;;;;1.23;1.10;;;19.30;58.20;;;;;;6020648;23;20154;-87
2023/11/04 21:18:29;;;;;;;1.30;1.20;;;19.30;58.60;;;;;;5968763;23;20177;-87
2023/11/04 21:21:00;;;;;;;1.13;1.13;;;19.20;58.40;;;;;;5927037;23;20172;-87
2023/11/04 21:23:36;;;;;;;1.48;1.33;;;19.20;58.30;;;;;;5960431;23;20164;-88
2023/11/04 21:26:07;;;;;;;1.30;1.20;;;19.20;58.40;;;;;;5960198;24;20163;-88
2023/11/04 21:28:38;;;;;;;1.33;1.23;;;19.20;58.40;;;;;;5927209;24;20166;-89
2023/11/04 21:31:09;;;;;;;1.20;1.10;;;19.20;58.40;;;;;;5928035;24;20179;-87
2023/11/04 21:33:35;;;;;;;1.40;1.30;;;19.20;58.50;;;;;;5934149;24;20199;-88
2023/11/04 21:36:22;;;;;;;1.30;1.20;;;19.10;58.50;;;;;;5955586;24;20501;-87
2023/11/04 21:39:04;;;;;;;1.23;1.10;;;19.10;58.60;;;;;;5955166;24;20156;-88
2023/11/04 21:41:44;;;;;;;1.67;1.33;;;19.10;58.60;;;;;;5982333;24;20207;-88
2023/11/04 21:44:17;;;;;;;1.50;1.40;;;19.10;58.60;;;;;;5964391;24;20162;-87
2023/11/04 21:46:56;;;;;;;1.20;1.08;;;19.10;58.70;;;;;;5980853;23;20159;-88
2023/11/04 21:50:07;;;;;;;1.40;1.30;;;19.00;58.70;;;;;;6003791;23;20159;-87
2023/11/04 21:52:34;;;;;;;1.65;1.48;;;19.00;58.60;;;;;;6002789;23;20234;-88
2023/11/04 21:55:12;;;;;;;1.13;1.08;;;19.00;58.70;;;;;;6015785;23;20166;-87
2023/11/04 21:57:43;;;;;;;1.35;1.25;;;19.00;58.70;;;;;;6026731;23;20158;-88
2023/11/04 22:00:18;;;;;;;1.38;1.27;;;19.00;58.70;;;;;;6062796;23;20620;-88
2023/11/04 22:02:49;;;;;;;1.40;1.30;;;19.00;58.80;;;;;;6067522;23;20201;-87
2023/11/04 22:05:24;;;;;;;1.40;1.30;;;18.90;58.80;;;;;;6009846;23;20159;-89
2023/11/04 22:08:05;;;;;;;1.35;1.25;;;19.00;58.90;;;;;;6010244;23;20162;-89
2023/11/04 22:10:38;;;;;;;1.55;1.45;;;19.00;58.80;;;;;;5991140;23;20182;-87
2023/11/04 22:13:28;;;;;;;1.40;1.30;;;19.00;58.90;;;;;;6066564;23;20729;-87
2023/11/04 22:16:10;;;;;;;1.45;1.35;;;18.90;58.90;;;;;;6062404;23;20161;-88
2023/11/04 22:18:44;;;;;;;2.35;1.38;;;18.90;58.90;;;;;;6019962;23;20154;-88
2023/11/04 22:21:30;;;;;;;1.55;1.45;;;18.90;58.90;;;;;;6038916;23;20165;-87
2023/11/04 22:24:09;;;;;;;1.60;1.50;;;18.90;59.00;;;;;;6043579;23;20232;-87
2023/11/04 22:26:56;;;;;;;1.38;1.27;;;18.90;59.70;;;;;;6043188;23;20186;-88
2023/11/04 22:29:31;;;;;;;1.30;1.20;;;18.90;59.00;;;;;;6043261;23;20161;-88
2023/11/04 22:32:05;;;;;;;1.38;1.27;;;18.90;59.10;;;;;;6065291;23;20190;-91
2023/11/04 22:34:42;;;;;;;1.75;1.50;;;18.90;59.10;;;;;;5999937;23;20252;-87
2023/11/04 22:37:30;;;;;;;1.60;1.50;;;18.90;59.10;;;;;;6068870;23;20157;-88
2023/11/04 22:40:41;;;;;;;1.30;1.15;;;18.90;59.20;;;;;;6043276;23;20201;-86
2023/11/04 22:43:14;;;;;;;1.27;1.17;;;18.80;59.20;;;;;;6009707;23;20157;-87
2023/11/04 22:45:46;;;;;;;1.35;1.25;;;18.90;59.20;;;;;;5991741;23;20154;-88
2023/11/04 22:48:15;;;;;;;2.33;1.40;;;18.80;59.20;;;;;;6014813;23;20592;-89
2023/11/04 22:50:58;;;;;;;1.38;1.27;;;18.80;59.10;;;;;;6015135;23;20619;-88
2023/11/04 22:53:29;;;;;;;1.33;1.23;;;18.90;59.20;;;;;;6012424;23;20620;-87
2023/11/04 22:56:10;;;;;;;1.70;1.60;;;18.80;59.20;;;;;;5990298;23;20155;-87
